Time;durP1;ratioP1;P1;durP2;ratioP2;P2;SDS_P1;SDS_P2;PMS_P1;PMS_P2;Temp;Humidity;BMP_temperature;BMP_pressure;BME280_temperature;BME280_humidity;BME280_pressure;Samples;Min_cycle;Max_cycle;Signal;HPM_P1;HPM_P2
2021/01/27 00:00:38;;;;;;;9.93;5.65;;;;;;;;;;5011883;28;20269;-67
2021/01/27 00:03:04;;;;;;;9.20;5.28;;;;;;;;;;5015362;28;20067;-67
2021/01/27 00:05:36;;;;;;;9.23;5.57;;;;;;;;;;5015041;28;20419;-67
2021/01/27 00:08:02;;;;;;;10.00;5.15;;;;;;;;;;5013163;28;20100;-67
2021/01/27 00:10:28;;;;;;;10.70;5.23;;;;;;;;;;5007695;28;20034;-67
2021/01/27 00:12:53;;;;;;;11.35;5.45;;;;;;;;;;5014838;28;20061;-67
2021/01/27 00:15:20;;;;;;;7.83;5.10;;;;;;;;;;5014832;28;20518;-67
2021/01/27 00:17:45;;;;;;;10.02;6.10;;;;;;;;;;5014843;28;20022;-67
2021/01/27 00:20:13;;;;;;;13.10;5.67;;;;;;;;;;5010219;28;20415;-67
2021/01/27 00:22:38;;;;;;;8.80;4.53;;;;;;;;;;5014700;28;20046;-67
2021/01/27 00:25:04;;;;;;;7.67;5.03;;;;;;;;;;5014737;28;20118;-67
2021/01/27 00:27:29;;;;;;;8.48;4.90;;;;;;;;;;5014427;28;20170;-67
2021/01/27 00:29:54;;;;;;;11.40;5.73;;;;;;;;;;5012985;28;20427;-67
2021/01/27 00:32:20;;;;;;;6.57;4.47;;;;;;;;;;5014632;28;20014;-67
2021/01/27 00:34:45;;;;;;;9.87;5.03;;;;;;;;;;5014372;28;20029;-67
2021/01/27 00:37:10;;;;;;;9.00;4.97;;;;;;;;;;5013763;28;20346;-67
2021/01/27 00:39:35;;;;;;;6.80;4.90;;;;;;;;;;5013645;28;20034;-67
2021/01/27 00:42:00;;;;;;;9.43;4.43;;;;;;;;;;5011804;28;20131;-68
2021/01/27 00:44:25;;;;;;;7.70;4.60;;;;;;;;;;5011462;28;20026;-67
2021/01/27 00:46:51;;;;;;;8.60;4.83;;;;;;;;;;5014169;28;20018;-67
2021/01/27 00:49:16;;;;;;;7.90;5.07;;;;;;;;;;5014225;28;20022;-67
2021/01/27 00:51:41;;;;;;;7.53;4.60;;;;;;;;;;5003792;28;20029;-67
2021/01/27 00:54:06;;;;;;;9.03;5.00;;;;;;;;;;5012470;28;20411;-67
2021/01/27 00:56:31;;;;;;;8.70;4.73;;;;;;;;;;5012469;28;20359;-67
2021/01/27 00:58:57;;;;;;;10.37;5.10;;;;;;;;;;5012143;28;20038;-67
2021/01/27 01:01:22;;;;;;;9.03;4.30;;;;;;;;;;5010308;28;20030;-67
2021/01/27 01:03:47;;;;;;;7.90;5.17;;;;;;;;;;5008725;28;20033;-67
2021/01/27 01:06:12;;;;;;;9.20;5.10;;;;;;;;;;5014159;28;20032;-67
2021/01/27 01:08:37;;;;;;;7.50;4.90;;;;;;;;;;5013766;28;20022;-67
2021/01/27 01:11:03;;;;;;;10.80;4.60;;;;;;;;;;5013731;28;20026;-67
2021/01/27 01:13:30;;;;;;;9.67;4.63;;;;;;;;;;5009450;28;20049;-70
2021/01/27 01:15:55;;;;;;;7.32;4.43;;;;;;;;;;5013714;28;20022;-67
2021/01/27 01:18:20;;;;;;;8.30;4.73;;;;;;;;;;5013742;28;20067;-67
2021/01/27 01:20:47;;;;;;;11.43;5.57;;;;;;;;;;5013336;28;20011;-67
2021/01/27 01:23:13;;;;;;;8.27;4.40;;;;;;;;;;5005358;28;20362;-67
2021/01/27 01:25:38;;;;;;;8.73;4.55;;;;;;;;;;5005898;28;20025;-67
2021/01/27 01:28:04;;;;;;;9.00;4.27;;;;;;;;;;5009999;28;20056;-68
2021/01/27 01:30:34;;;;;;;6.72;4.07;;;;;;;;;;5013508;28;20060;-67
2021/01/27 01:33:02;;;;;;;8.10;4.65;;;;;;;;;;5009056;28;20101;-67
2021/01/27 01:35:27;;;;;;;7.57;4.47;;;;;;;;;;4996371;28;20026;-67
2021/01/27 01:37:52;;;;;;;6.67;4.57;;;;;;;;;;5012351;28;20082;-67
2021/01/27 01:40:19;;;;;;;4.80;4.00;;;;;;;;;;5000944;28;20155;-67
2021/01/27 01:42:44;;;;;;;6.78;3.53;;;;;;;;;;5013631;28;20055;-68
2021/01/27 01:45:28;;;;;;;7.77;3.57;;;;;;;;;;5010592;28;20103;-67
2021/01/27 01:47:54;;;;;;;6.85;3.92;;;;;;;;;;5000351;28;20026;-68
2021/01/27 01:50:20;;;;;;;;;;;;;;;;;;5013207;28;20415;-68
2021/01/27 01:52:45;;;;;;;6.83;4.30;;;;;;;;;;5013706;28;20041;-67
2021/01/27 01:55:10;;;;;;;6.93;3.43;;;;;;;;;;5009232;28;20017;-67
2021/01/27 01:57:35;;;;;;;7.40;3.90;;;;;;;;;;5013505;28;20350;-68
2021/01/27 02:00:07;;;;;;;9.30;3.97;;;;;;;;;;5013271;28;20135;-67
2021/01/27 02:02:33;;;;;;;8.50;4.30;;;;;;;;;;5013388;28;20067;-67
2021/01/27 02:05:04;;;;;;;7.50;4.28;;;;;;;;;;5000966;28;20285;-68
2021/01/27 02:07:29;;;;;;;8.00;3.95;;;;;;;;;;5012093;28;20038;-67
2021/01/27 02:09:54;;;;;;;8.20;3.77;;;;;;;;;;5013228;28;20014;-67
2021/01/27 02:12:38;;;;;;;7.27;4.07;;;;;;;;;;5013144;28;20006;-67
2021/01/27 02:15:16;;;;;;;7.07;4.10;;;;;;;;;;5012995;28;20335;-67
2021/01/27 02:17:53;;;;;;;8.07;3.78;;;;;;;;;;5000559;28;20343;-67
2021/01/27 02:20:37;;;;;;;7.60;3.63;;;;;;;;;;5013077;28;20014;-67
2021/01/27 02:23:14;;;;;;;5.15;3.60;;;;;;;;;;5001407;28;20025;-67
2021/01/27 02:25:54;;;;;;;6.18;3.42;;;;;;;;;;5012838;28;20041;-68
2021/01/27 02:28:35;;;;;;;5.68;3.58;;;;;;;;;;4999025;28;20481;-67
2021/01/27 02:31:05;;;;;;;5.88;3.35;;;;;;;;;;5008273;28;20014;-67
2021/01/27 02:33:34;;;;;;;8.07;3.97;;;;;;;;;;5002481;28;20018;-68
2021/01/27 02:36:04;;;;;;;7.15;3.70;;;;;;;;;;5010699;28;20022;-67
2021/01/27 02:38:30;;;;;;;7.13;4.70;;;;;;;;;;5016406;28;20022;-67
2021/01/27 02:41:00;;;;;;;7.40;3.87;;;;;;;;;;5014836;28;20117;-67
2021/01/27 02:43:32;;;;;;;7.47;4.15;;;;;;;;;;5016336;28;20122;-67
2021/01/27 02:46:01;;;;;;;5.80;4.28;;;;;;;;;;5013527;28;20030;-67
2021/01/27 02:48:31;;;;;;;7.25;4.63;;;;;;;;;;5002893;28;20422;-67
2021/01/27 02:51:05;;;;;;;6.82;4.28;;;;;;;;;;5016441;28;20112;-68
2021/01/27 02:53:33;;;;;;;5.43;4.20;;;;;;;;;;5015970;28;20025;-67
2021/01/27 02:56:01;;;;;;;7.40;4.80;;;;;;;;;;5005749;28;20030;-67
2021/01/27 02:58:31;;;;;;;8.77;4.22;;;;;;;;;;5013509;28;20006;-67
2021/01/27 03:01:02;;;;;;;5.88;4.07;;;;;;;;;;5016015;28;20087;-67
2021/01/27 03:03:31;;;;;;;5.32;4.07;;;;;;;;;;5014680;28;20022;-67
2021/01/27 03:05:58;;;;;;;6.85;4.10;;;;;;;;;;5011057;28;20023;-68
2021/01/27 03:08:28;;;;;;;6.63;4.30;;;;;;;;;;5012375;28;20032;-67
2021/01/27 03:10:59;;;;;;;7.18;3.95;;;;;;;;;;5015939;28;20025;-67
2021/01/27 03:13:25;;;;;;;6.85;4.00;;;;;;;;;;5015572;28;20028;-67
2021/01/27 03:15:51;;;;;;;6.90;3.87;;;;;;;;;;5016095;28;20029;-67
2021/01/27 03:18:16;;;;;;;;;;;;;;;;;;5014883;28;20018;-67
2021/01/27 03:20:43;;;;;;;7.05;3.85;;;;;;;;;;5015571;28;19905;-67
2021/01/27 03:23:15;;;;;;;6.35;3.58;;;;;;;;;;5015670;28;20101;-67
2021/01/27 03:25:53;;;;;;;6.85;3.70;;;;;;;;;;5015519;28;20025;-68
2021/01/27 03:28:34;;;;;;;6.25;3.85;;;;;;;;;;5013997;28;20025;-67
2021/01/27 03:30:59;;;;;;;6.60;4.22;;;;;;;;;;5015623;28;20043;-67
2021/01/27 03:33:24;;;;;;;5.63;4.20;;;;;;;;;;5015590;28;20018;-67
2021/01/27 03:35:51;;;;;;;6.73;4.13;;;;;;;;;;5015300;28;20090;-67
2021/01/27 03:38:19;;;;;;;7.45;3.95;;;;;;;;;;5013823;28;20296;-67
2021/01/27 03:40:45;;;;;;;4.88;3.70;;;;;;;;;;5015745;28;20014;-67
2021/01/27 03:43:32;;;;;;;5.35;3.35;;;;;;;;;;5015366;28;20018;-68
2021/01/27 03:46:01;;;;;;;5.82;3.92;;;;;;;;;;5015183;28;20050;-67
2021/01/27 03:48:32;;;;;;;7.47;4.00;;;;;;;;;;5011060;28;20080;-67
2021/01/27 03:50:59;;;;;;;6.88;3.65;;;;;;;;;;4998783;28;20058;-67
2021/01/27 03:53:25;;;;;;;6.82;3.85;;;;;;;;;;5014296;28;20174;-68
2021/01/27 03:56:14;;;;;;;5.18;3.45;;;;;;;;;;5015260;28;20022;-67
2021/01/27 03:58:41;;;;;;;7.32;3.70;;;;;;;;;;5014438;28;20074;-67
2021/01/27 04:01:06;;;;;;;6.55;3.70;;;;;;;;;;5007796;28;20015;-68
2021/01/27 04:03:31;;;;;;;7.10;3.93;;;;;;;;;;5015010;28;20101;-68
2021/01/27 04:05:56;;;;;;;5.77;3.60;;;;;;;;;;5015160;28;20044;-67
2021/01/27 04:08:22;;;;;;;5.57;3.60;;;;;;;;;;5013809;28;20037;-67
2021/01/27 04:10:47;;;;;;;5.27;3.23;;;;;;;;;;5009480;28;20362;-68
2021/01/27 04:13:12;;;;;;;6.13;4.00;;;;;;;;;;5014898;28;20112;-68
2021/01/27 04:15:37;;;;;;;7.67;4.70;;;;;;;;;;5014769;28;20046;-68
2021/01/27 04:18:03;;;;;;;6.50;3.83;;;;;;;;;;5015004;28;20106;-67
2021/01/27 04:20:28;;;;;;;6.60;4.20;;;;;;;;;;5013910;28;20093;-67
2021/01/27 04:22:53;;;;;;;8.60;4.30;;;;;;;;;;5014861;28;20021;-67
2021/01/27 04:25:18;;;;;;;6.27;4.27;;;;;;;;;;5013465;28;20082;-68
2021/01/27 04:27:44;;;;;;;7.63;4.30;;;;;;;;;;5014243;28;20033;-67
2021/01/27 04:30:10;;;;;;;6.57;3.73;;;;;;;;;;5014635;28;20390;-67
2021/01/27 04:32:36;;;;;;;6.28;4.18;;;;;;;;;;5003221;28;20033;-68
2021/01/27 04:35:02;;;;;;;6.47;4.57;;;;;;;;;;5014468;28;20119;-67
2021/01/27 04:37:27;;;;;;;5.78;3.97;;;;;;;;;;5014132;28;20025;-67
2021/01/27 04:39:52;;;;;;;6.90;4.30;;;;;;;;;;5012460;28;20053;-68
2021/01/27 04:42:21;;;;;;;6.37;4.57;;;;;;;;;;5004570;28;20411;-67
2021/01/27 04:44:46;;;;;;;7.15;4.80;;;;;;;;;;5011636;28;20047;-68
2021/01/27 04:47:40;;;;;;;6.20;4.70;;;;;;;;;;5014265;28;20021;-68
2021/01/27 04:50:10;;;;;;;6.57;4.53;;;;;;;;;;4934826;29;20031;-68
2021/01/27 04:52:50;;;;;;;7.25;5.13;;;;;;;;;;4929349;29;20322;-67
2021/01/27 04:55:21;;;;;;;7.43;5.07;;;;;;;;;;4928247;29;20047;-68
2021/01/27 04:57:49;;;;;;;9.63;4.75;;;;;;;;;;4934628;29;20027;-68
2021/01/27 05:00:23;;;;;;;9.30;4.95;;;;;;;;;;4934167;29;20024;-67
2021/01/27 05:03:17;;;;;;;6.07;5.05;;;;;;;;;;4925119;29;20035;-67
2021/01/27 05:05:44;;;;;;;5.95;4.95;;;;;;;;;;4904606;28;20047;-67
2021/01/27 05:08:15;;;;;;;7.13;5.00;;;;;;;;;;4918772;29;20027;-67
2021/01/27 05:10:40;;;;;;;8.80;5.25;;;;;;;;;;4934705;29;20404;-67
2021/01/27 05:13:11;;;;;;;8.27;5.90;;;;;;;;;;4934739;29;20032;-67
2021/01/27 05:15:36;;;;;;;6.63;5.72;;;;;;;;;;4934396;29;20051;-67
2021/01/27 05:18:02;;;;;;;8.17;6.30;;;;;;;;;;4918679;29;20035;-67
2021/01/27 05:20:27;;;;;;;9.03;7.70;;;;;;;;;;4915612;29;20039;-67
2021/01/27 05:22:52;;;;;;;11.40;8.13;;;;;;;;;;4915542;29;20103;-67
2021/01/27 05:25:32;;;;;;;8.40;7.50;;;;;;;;;;4917076;28;20032;-68
2021/01/27 05:27:58;;;;;;;9.70;8.10;;;;;;;;;;5001577;28;20031;-67
2021/01/27 05:30:27;;;;;;;10.20;8.13;;;;;;;;;;5001982;28;20076;-67
2021/01/27 05:32:57;;;;;;;9.65;8.02;;;;;;;;;;5003541;28;20517;-67
2021/01/27 05:35:31;;;;;;;9.88;7.68;;;;;;;;;;5000810;28;20023;-67
2021/01/27 05:37:57;;;;;;;10.82;8.38;;;;;;;;;;5011933;28;20311;-67
2021/01/27 05:40:22;;;;;;;8.93;7.25;;;;;;;;;;5013960;28;20294;-67
2021/01/27 05:42:47;;;;;;;8.40;7.10;;;;;;;;;;5013523;28;20018;-67
2021/01/27 05:45:25;;;;;;;9.73;7.17;;;;;;;;;;5012572;28;20018;-67
2021/01/27 05:47:53;;;;;;;8.95;7.47;;;;;;;;;;5012778;28;20026;-67
2021/01/27 05:50:27;;;;;;;10.00;7.30;;;;;;;;;;5012947;28;20352;-67
2021/01/27 05:52:52;;;;;;;10.40;6.75;;;;;;;;;;5013319;28;20427;-68
2021/01/27 05:55:18;;;;;;;7.77;6.17;;;;;;;;;;5012608;28;20049;-67
2021/01/27 05:57:55;;;;;;;7.77;6.97;;;;;;;;;;5002460;28;20035;-68
2021/01/27 06:00:23;;;;;;;10.93;6.88;;;;;;;;;;4999878;28;20018;-67
2021/01/27 06:02:52;;;;;;;8.80;6.80;;;;;;;;;;5013634;28;20026;-68
2021/01/27 06:05:20;;;;;;;7.35;6.63;;;;;;;;;;5013162;28;20410;-67
2021/01/27 06:07:45;;;;;;;7.60;6.80;;;;;;;;;;5009829;28;20033;-67
2021/01/27 06:10:16;;;;;;;7.60;6.77;;;;;;;;;;5012867;28;20013;-67
2021/01/27 06:12:42;;;;;;;7.90;6.60;;;;;;;;;;5012104;28;20033;-67
2021/01/27 06:15:12;;;;;;;8.50;5.87;;;;;;;;;;5009986;28;20046;-67
2021/01/27 06:17:47;;;;;;;7.55;5.95;;;;;;;;;;5013449;28;20025;-68
2021/01/27 06:20:13;;;;;;;6.20;5.60;;;;;;;;;;5012660;28;20102;-68
2021/01/27 06:22:38;;;;;;;7.28;6.05;;;;;;;;;;5008323;28;20027;-68
2021/01/27 06:25:06;;;;;;;7.13;5.60;;;;;;;;;;4994456;28;20080;-68
2021/01/27 06:27:32;;;;;;;6.82;6.13;;;;;;;;;;5002705;28;20406;-68
2021/01/27 06:30:19;;;;;;;6.13;5.53;;;;;;;;;;5005906;28;20030;-68
2021/01/27 06:32:53;;;;;;;6.60;5.90;;;;;;;;;;4998614;28;20021;-68
2021/01/27 06:35:18;;;;;;;6.70;5.43;;;;;;;;;;4997405;28;20087;-69
2021/01/27 06:37:55;;;;;;;6.37;5.77;;;;;;;;;;5006876;28;20448;-69
2021/01/27 06:40:24;;;;;;;7.05;6.00;;;;;;;;;;4995533;28;20022;-68
2021/01/27 06:42:52;;;;;;;6.35;5.55;;;;;;;;;;5008579;28;20140;-69
2021/01/27 06:45:20;;;;;;;6.97;6.28;;;;;;;;;;5001993;28;20053;-68
2021/01/27 06:48:04;;;;;;;6.90;6.20;;;;;;;;;;4996304;28;20023;-70
2021/01/27 06:50:55;;;;;;;7.57;6.07;;;;;;;;;;5006400;28;20038;-69
2021/01/27 06:53:32;;;;;;;6.65;6.00;;;;;;;;;;4995006;28;20113;-70
2021/01/27 06:55:57;;;;;;;;;;;;;;;;;;5000508;28;20022;-69
2021/01/27 06:58:41;;;;;;;7.32;6.30;;;;;;;;;;5005488;28;19940;-69
2021/01/27 07:01:15;;;;;;;7.53;6.65;;;;;;;;;;5006342;28;20102;-69
2021/01/27 07:03:59;;;;;;;6.97;6.35;;;;;;;;;;5007797;28;20014;-69
2021/01/27 07:06:30;;;;;;;9.95;6.28;;;;;;;;;;5003785;28;20055;-69
2021/01/27 07:09:04;;;;;;;7.75;6.40;;;;;;;;;;5007386;28;20093;-69
2021/01/27 07:11:36;;;;;;;7.68;6.85;;;;;;;;;;5002688;28;20311;-69
2021/01/27 07:14:01;;;;;;;7.32;6.57;;;;;;;;;;5006766;28;20431;-69
2021/01/27 07:16:38;;;;;;;7.03;6.33;;;;;;;;;;5004058;28;20015;-68
2021/01/27 07:19:15;;;;;;;6.93;6.22;;;;;;;;;;5006924;28;20060;-69
2021/01/27 07:21:40;;;;;;;7.20;6.32;;;;;;;;;;5003384;28;20412;-69
2021/01/27 07:24:35;;;;;;;7.00;6.40;;;;;;;;;;5010476;28;20054;-69
2021/01/27 07:27:12;;;;;;;6.70;6.00;;;;;;;;;;4928351;29;20036;-69
2021/01/27 07:29:55;;;;;;;6.90;6.20;;;;;;;;;;4921276;29;20052;-69
2021/01/27 07:32:28;;;;;;;7.30;6.57;;;;;;;;;;4918675;29;20128;-69
2021/01/27 07:34:59;;;;;;;7.22;6.53;;;;;;;;;;4922632;29;20516;-69
2021/01/27 07:37:24;;;;;;;7.53;6.38;;;;;;;;;;4943689;28;20082;-69
2021/01/27 07:39:54;;;;;;;8.13;7.33;;;;;;;;;;4924954;29;20019;-70
2021/01/27 07:42:25;;;;;;;7.40;6.65;;;;;;;;;;4951746;28;20027;-70
2021/01/27 07:44:53;;;;;;;7.65;6.85;;;;;;;;;;4943796;28;20429;-70
2021/01/27 07:47:30;;;;;;;7.43;6.72;;;;;;;;;;4972389;28;20114;-70
2021/01/27 07:49:57;;;;;;;8.00;7.22;;;;;;;;;;4946450;28;20432;-70
2021/01/27 07:52:26;;;;;;;11.38;6.68;;;;;;;;;;4957756;28;20040;-69
2021/01/27 07:54:59;;;;;;;8.75;7.85;;;;;;;;;;4931211;28;20020;-69
2021/01/27 07:57:30;;;;;;;8.50;7.30;;;;;;;;;;4935997;29;20027;-69
2021/01/27 08:00:14;;;;;;;7.63;6.85;;;;;;;;;;4970132;28;20113;-69
2021/01/27 08:02:55;;;;;;;9.00;8.10;;;;;;;;;;4978473;28;20045;-68
2021/01/27 08:05:21;;;;;;;8.32;7.53;;;;;;;;;;4999144;28;20040;-68
2021/01/27 08:07:57;;;;;;;9.40;8.40;;;;;;;;;;5005887;28;20029;-69
2021/01/27 08:10:25;;;;;;;10.73;8.77;;;;;;;;;;5014920;28;20026;-68
2021/01/27 08:12:52;;;;;;;10.23;9.02;;;;;;;;;;5008251;28;20127;-68
2021/01/27 08:15:23;;;;;;;10.40;9.40;;;;;;;;;;5012970;28;20052;-68
2021/01/27 08:17:51;;;;;;;10.75;9.65;;;;;;;;;;4999882;28;20038;-68
2021/01/27 08:20:19;;;;;;;10.75;9.65;;;;;;;;;;5010464;28;20434;-68
2021/01/27 08:22:49;;;;;;;9.90;8.90;;;;;;;;;;5014943;28;20029;-69
2021/01/27 08:25:34;;;;;;;11.13;10.02;;;;;;;;;;5013515;28;20022;-69
2021/01/27 08:28:15;;;;;;;12.10;10.25;;;;;;;;;;5013327;28;20114;-69
2021/01/27 08:30:41;;;;;;;11.30;10.25;;;;;;;;;;5014747;28;20033;-70
2021/01/27 08:33:25;;;;;;;11.53;10.33;;;;;;;;;;5007513;28;20013;-69
2021/01/27 08:35:50;;;;;;;10.85;9.75;;;;;;;;;;5013677;28;20029;-69
2021/01/27 08:38:26;;;;;;;11.70;10.50;;;;;;;;;;5007732;28;20383;-69
2021/01/27 08:40:51;;;;;;;11.83;10.67;;;;;;;;;;5014802;28;20401;-69
2021/01/27 08:43:17;;;;;;;11.60;10.50;;;;;;;;;;5014614;28;20026;-69
2021/01/27 08:45:46;;;;;;;11.37;10.27;;;;;;;;;;5010036;28;20472;-69
2021/01/27 08:48:11;;;;;;;12.10;11.00;;;;;;;;;;5006026;28;20561;-70
2021/01/27 08:50:43;;;;;;;12.80;11.38;;;;;;;;;;5014519;28;20030;-67
2021/01/27 08:53:19;;;;;;;12.23;11.02;;;;;;;;;;5015074;28;20086;-68
2021/01/27 08:55:44;;;;;;;12.63;11.23;;;;;;;;;;5012702;28;20034;-67
2021/01/27 08:58:16;;;;;;;12.73;11.43;;;;;;;;;;5010080;28;20304;-69
2021/01/27 09:00:42;;;;;;;13.02;11.65;;;;;;;;;;5010574;28;20029;-69
2021/01/27 09:03:08;;;;;;;12.52;11.32;;;;;;;;;;5012188;28;20022;-69
2021/01/27 09:05:35;;;;;;;12.80;11.40;;;;;;;;;;5014722;28;20095;-69
2021/01/27 09:08:03;;;;;;;13.82;12.52;;;;;;;;;;5005214;28;20030;-69
2021/01/27 09:10:31;;;;;;;12.93;11.73;;;;;;;;;;5000464;28;20326;-71
2021/01/27 09:12:57;;;;;;;14.52;13.05;;;;;;;;;;5009666;28;20057;-69
2021/01/27 09:15:29;;;;;;;14.52;13.13;;;;;;;;;;5011818;28;20343;-69
2021/01/27 09:17:56;;;;;;;14.38;12.88;;;;;;;;;;4999100;28;20075;-69
2021/01/27 09:20:21;;;;;;;;;;;;;;;;;;5000231;28;20010;-70
2021/01/27 09:22:46;;;;;;;14.80;13.30;;;;;;;;;;5012436;28;19915;-69
2021/01/27 09:25:11;;;;;;;14.87;13.37;;;;;;;;;;5013814;28;20091;-69
2021/01/27 09:27:36;;;;;;;15.80;14.20;;;;;;;;;;5007974;28;20486;-69
2021/01/27 09:30:15;;;;;;;15.03;13.53;;;;;;;;;;5007365;28;20022;-69
2021/01/27 09:32:40;;;;;;;16.27;13.23;;;;;;;;;;4999408;28;20119;-69
2021/01/27 09:35:11;;;;;;;16.17;14.43;;;;;;;;;;5013895;28;20021;-69
2021/01/27 09:37:42;;;;;;;16.13;14.52;;;;;;;;;;5001950;28;20099;-69
2021/01/27 09:40:07;;;;;;;17.55;15.85;;;;;;;;;;4999536;28;20087;-69
2021/01/27 09:42:33;;;;;;;17.30;15.60;;;;;;;;;;5006018;28;20438;-69
2021/01/27 09:45:00;;;;;;;17.23;15.53;;;;;;;;;;5009367;28;20026;-69
2021/01/27 09:47:25;;;;;;;18.60;16.58;;;;;;;;;;5006296;28;20041;-69
2021/01/27 09:49:55;;;;;;;18.48;16.52;;;;;;;;;;5013552;28;20021;-69
2021/01/27 09:52:21;;;;;;;20.15;16.92;;;;;;;;;;4999586;28;20097;-69
2021/01/27 09:54:52;;;;;;;18.30;16.40;;;;;;;;;;5009997;28;20108;-69
2021/01/27 09:57:18;;;;;;;19.73;17.73;;;;;;;;;;5006684;28;20022;-69
2021/01/27 09:59:47;;;;;;;22.13;18.25;;;;;;;;;;5012562;28;20024;-69
2021/01/27 10:02:12;;;;;;;20.83;18.60;;;;;;;;;;5010872;28;20025;-69
2021/01/27 10:04:39;;;;;;;20.00;17.90;;;;;;;;;;5011749;28;20029;-69
2021/01/27 10:07:06;;;;;;;20.08;18.00;;;;;;;;;;5010465;28;20022;-69
2021/01/27 10:09:38;;;;;;;21.48;19.33;;;;;;;;;;5009772;28;20030;-70
2021/01/27 10:12:05;;;;;;;22.70;20.13;;;;;;;;;;5002848;28;20034;-69
2021/01/27 10:14:35;;;;;;;23.58;20.00;;;;;;;;;;5004115;28;20046;-69
2021/01/27 10:17:02;;;;;;;23.67;21.27;;;;;;;;;;5008716;28;20042;-69
2021/01/27 10:19:27;;;;;;;25.95;22.73;;;;;;;;;;5003046;28;20079;-70
2021/01/27 10:21:53;;;;;;;26.07;22.43;;;;;;;;;;5011621;28;20423;-69
2021/01/27 10:24:36;;;;;;;27.70;24.10;;;;;;;;;;5013207;28;20023;-70
2021/01/27 10:27:03;;;;;;;26.65;23.75;;;;;;;;;;5007010;28;20027;-70
2021/01/27 10:29:35;;;;;;;28.98;25.80;;;;;;;;;;5011678;28;20060;-69
2021/01/27 10:32:17;;;;;;;30.60;26.25;;;;;;;;;;5005902;28;20323;-69
2021/01/27 10:34:43;;;;;;;30.17;25.08;;;;;;;;;;4999637;28;20398;-69
2021/01/27 10:37:08;;;;;;;;;;;;;;;;;;5008774;28;20408;-69
2021/01/27 10:39:33;;;;;;;28.33;24.48;;;;;;;;;;5012876;28;20329;-69
2021/01/27 10:42:04;;;;;;;29.63;26.07;;;;;;;;;;5012981;28;20148;-69
2021/01/27 10:44:31;;;;;;;33.25;26.65;;;;;;;;;;5012809;28;20022;-69
2021/01/27 10:46:58;;;;;;;31.38;27.10;;;;;;;;;;5005048;28;20022;-70
2021/01/27 10:49:23;;;;;;;29.48;26.27;;;;;;;;;;5013014;28;20424;-69
2021/01/27 10:51:48;;;;;;;31.33;26.53;;;;;;;;;;5012772;28;20029;-69
2021/01/27 10:54:14;;;;;;;31.90;26.23;;;;;;;;;;5012830;28;20014;-69
2021/01/27 10:56:40;;;;;;;33.20;27.90;;;;;;;;;;5009398;28;20018;-70
2021/01/27 10:59:05;;;;;;;34.50;28.77;;;;;;;;;;5016335;28;20353;-69
2021/01/27 11:01:31;;;;;;;33.13;28.73;;;;;;;;;;5016023;28;20138;-69
2021/01/27 11:03:56;;;;;;;36.47;29.27;;;;;;;;;;5016229;28;20102;-69
2021/01/27 11:06:21;;;;;;;34.07;28.77;;;;;;;;;;5015901;28;20400;-69
2021/01/27 11:08:49;;;;;;;33.80;28.33;;;;;;;;;;4997581;28;20018;-69
2021/01/27 11:11:14;;;;;;;33.00;28.15;;;;;;;;;;5008018;28;20097;-69
2021/01/27 11:13:39;;;;;;;35.93;29.80;;;;;;;;;;5015809;28;20073;-69
2021/01/27 11:16:09;;;;;;;37.20;29.70;;;;;;;;;;5015971;28;20392;-69
2021/01/27 11:18:34;;;;;;;36.30;29.85;;;;;;;;;;5007379;28;20390;-69
2021/01/27 11:21:00;;;;;;;40.03;31.80;;;;;;;;;;5016019;28;20093;-70
2021/01/27 11:23:25;;;;;;;39.10;31.08;;;;;;;;;;5015621;28;20014;-70
2021/01/27 11:25:52;;;;;;;41.10;31.93;;;;;;;;;;5015867;28;20057;-69
2021/01/27 11:28:17;;;;;;;41.35;32.75;;;;;;;;;;5015819;28;20425;-69
2021/01/27 11:30:43;;;;;;;42.37;33.43;;;;;;;;;;5014760;28;20097;-70
2021/01/27 11:33:08;;;;;;;43.28;34.25;;;;;;;;;;5015824;28;20411;-69
2021/01/27 11:35:33;;;;;;;41.63;32.10;;;;;;;;;;5015701;28;20033;-70
2021/01/27 11:38:01;;;;;;;40.43;32.70;;;;;;;;;;5015572;28;20021;-69
2021/01/27 11:40:27;;;;;;;41.35;32.83;;;;;;;;;;5007296;28;20281;-70
2021/01/27 11:42:52;;;;;;;44.37;33.47;;;;;;;;;;5011979;28;20030;-70
2021/01/27 11:45:18;;;;;;;44.25;33.42;;;;;;;;;;5015552;28;20288;-69
2021/01/27 11:47:43;;;;;;;45.17;34.97;;;;;;;;;;5015358;28;20025;-69
2021/01/27 11:50:09;;;;;;;42.63;32.57;;;;;;;;;;5014781;28;20092;-69
2021/01/27 11:52:35;;;;;;;43.50;33.15;;;;;;;;;;5007927;28;20415;-69
2021/01/27 11:55:00;;;;;;;43.57;33.90;;;;;;;;;;5005626;28;20022;-69
2021/01/27 11:57:25;;;;;;;44.27;34.17;;;;;;;;;;5015388;28;20025;-69
2021/01/27 11:59:50;;;;;;;44.10;33.13;;;;;;;;;;5015258;28;20064;-70
2021/01/27 12:02:15;;;;;;;41.87;32.63;;;;;;;;;;5015545;28;20061;-70
2021/01/27 12:04:41;;;;;;;43.57;34.27;;;;;;;;;;5014534;28;20050;-69
2021/01/27 12:07:06;;;;;;;45.00;33.63;;;;;;;;;;5000933;28;20072;-70
2021/01/27 12:09:32;;;;;;;44.97;34.57;;;;;;;;;;5015297;28;20026;-69
2021/01/27 12:11:57;;;;;;;42.95;34.20;;;;;;;;;;5013836;28;20061;-70
2021/01/27 12:14:23;;;;;;;41.97;32.93;;;;;;;;;;5014986;28;20086;-69
2021/01/27 12:16:49;;;;;;;41.22;33.30;;;;;;;;;;5004938;28;20318;-70
2021/01/27 12:19:14;;;;;;;42.33;33.97;;;;;;;;;;5005917;28;20060;-69
2021/01/27 12:21:39;;;;;;;45.70;35.17;;;;;;;;;;5015007;28;20026;-69
2021/01/27 12:24:04;;;;;;;43.13;33.57;;;;;;;;;;5014839;28;20112;-69
2021/01/27 12:26:30;;;;;;;43.43;33.90;;;;;;;;;;5011802;28;20413;-69
2021/01/27 12:28:55;;;;;;;46.20;34.03;;;;;;;;;;5012376;28;20040;-69
2021/01/27 12:31:20;;;;;;;46.53;35.30;;;;;;;;;;5014836;28;20018;-69
2021/01/27 12:33:45;;;;;;;50.73;36.77;;;;;;;;;;5014679;28;20097;-70
2021/01/27 12:36:11;;;;;;;50.73;35.63;;;;;;;;;;5014638;28;20028;-69
2021/01/27 12:38:36;;;;;;;51.33;37.17;;;;;;;;;;5010190;28;20058;-69
2021/01/27 12:41:01;;;;;;;55.20;38.73;;;;;;;;;;5014550;28;20025;-70
2021/01/27 12:43:26;;;;;;;56.43;39.10;;;;;;;;;;5015095;28;20037;-70
2021/01/27 12:45:52;;;;;;;54.43;39.27;;;;;;;;;;5014638;28;20030;-69
2021/01/27 12:48:17;;;;;;;58.93;40.07;;;;;;;;;;5009282;28;20127;-70
2021/01/27 12:50:42;;;;;;;53.77;38.23;;;;;;;;;;5005632;28;20018;-69
2021/01/27 12:53:07;;;;;;;57.90;40.97;;;;;;;;;;5014659;28;20033;-70
2021/01/27 12:55:32;;;;;;;54.80;38.10;;;;;;;;;;5014649;28;20025;-70
2021/01/27 12:58:00;;;;;;;59.67;40.17;;;;;;;;;;5014373;28;20029;-70
2021/01/27 13:00:26;;;;;;;61.15;40.80;;;;;;;;;;4999160;28;20091;-69
2021/01/27 13:02:52;;;;;;;64.07;41.28;;;;;;;;;;5007296;28;20058;-67
2021/01/27 13:05:19;;;;;;;59.17;39.35;;;;;;;;;;5013366;28;20026;-70
2021/01/27 13:07:44;;;;;;;65.88;41.03;;;;;;;;;;5004993;28;20029;-67
2021/01/27 13:10:10;;;;;;;63.92;39.75;;;;;;;;;;5002839;28;20307;-69
2021/01/27 13:12:36;;;;;;;63.25;40.85;;;;;;;;;;5007842;28;20034;-70
2021/01/27 13:15:03;;;;;;;67.22;41.45;;;;;;;;;;5012944;28;20046;-70
2021/01/27 13:17:28;;;;;;;71.97;42.53;;;;;;;;;;5013110;28;20057;-67
2021/01/27 13:19:53;;;;;;;64.77;40.80;;;;;;;;;;5008644;28;20115;-68
2021/01/27 13:22:18;;;;;;;67.90;42.40;;;;;;;;;;5007457;28;20341;-69
2021/01/27 13:24:44;;;;;;;72.23;41.80;;;;;;;;;;5006871;28;20022;-71
2021/01/27 13:27:09;;;;;;;68.67;42.17;;;;;;;;;;4998322;28;20032;-68
2021/01/27 13:29:34;;;;;;;68.23;41.33;;;;;;;;;;5001852;28;20026;-68
2021/01/27 13:32:00;;;;;;;72.93;43.43;;;;;;;;;;5003226;28;20062;-68
2021/01/27 13:34:25;;;;;;;66.07;40.57;;;;;;;;;;5000548;28;20060;-69
2021/01/27 13:36:50;;;;;;;65.77;39.20;;;;;;;;;;5006529;28;20018;-69
2021/01/27 13:39:15;;;;;;;67.43;40.30;;;;;;;;;;5007758;28;20075;-68
2021/01/27 13:41:40;;;;;;;65.73;39.57;;;;;;;;;;5005838;28;20025;-68
2021/01/27 13:44:06;;;;;;;65.57;38.70;;;;;;;;;;5004301;28;20026;-69
2021/01/27 13:46:31;;;;;;;65.27;40.07;;;;;;;;;;5011355;28;20033;-68
2021/01/27 13:48:56;;;;;;;58.30;38.27;;;;;;;;;;5007922;28;20315;-69
2021/01/27 13:51:21;;;;;;;63.83;37.50;;;;;;;;;;5005433;28;20028;-70
2021/01/27 13:53:46;;;;;;;57.87;37.47;;;;;;;;;;4995559;28;20037;-70
2021/01/27 13:56:12;;;;;;;59.50;36.20;;;;;;;;;;4998236;28;20030;-69
2021/01/27 13:58:37;;;;;;;65.23;41.87;;;;;;;;;;5011332;28;20510;-69
2021/01/27 14:01:02;;;;;;;63.60;41.37;;;;;;;;;;5006217;28;20022;-69
2021/01/27 14:03:27;;;;;;;54.67;38.10;;;;;;;;;;5005989;28;20038;-69
2021/01/27 14:05:53;;;;;;;53.27;35.57;;;;;;;;;;4997327;28;20018;-69
2021/01/27 14:08:18;;;;;;;56.07;36.90;;;;;;;;;;5008289;28;20029;-69
2021/01/27 14:10:43;;;;;;;56.40;36.80;;;;;;;;;;5012628;28;20101;-69
2021/01/27 14:13:08;;;;;;;56.47;35.33;;;;;;;;;;5011839;28;20021;-69
2021/01/27 14:15:34;;;;;;;52.73;33.87;;;;;;;;;;5005416;28;20115;-70
2021/01/27 14:17:59;;;;;;;55.10;35.40;;;;;;;;;;5004842;28;20076;-69
2021/01/27 14:20:26;;;;;;;51.63;35.07;;;;;;;;;;5012602;28;20022;-69
2021/01/27 14:22:51;;;;;;;56.42;34.95;;;;;;;;;;5010448;28;20287;-69
2021/01/27 14:25:18;;;;;;;55.27;34.07;;;;;;;;;;5008099;28;20018;-69
2021/01/27 14:27:44;;;;;;;52.60;34.22;;;;;;;;;;5003947;28;20192;-69
2021/01/27 14:30:10;;;;;;;51.95;32.95;;;;;;;;;;5000285;28;20023;-70
2021/01/27 14:32:35;;;;;;;56.25;33.53;;;;;;;;;;5006947;28;20037;-70
2021/01/27 14:35:01;;;;;;;63.13;33.97;;;;;;;;;;5016632;28;20029;-68
2021/01/27 14:37:26;;;;;;;58.60;35.77;;;;;;;;;;5011732;28;20034;-68
2021/01/27 14:39:51;;;;;;;60.93;38.23;;;;;;;;;;5016498;28;20203;-69